Time;durP1;ratioP1;P1;durP2;ratioP2;P2;SDS_P1;SDS_P2;PMS_P1;PMS_P2;Temp;Humidity;BMP_temperature;BMP_pressure;BME280_temperature;BME280_humidity;BME280_pressure;Samples;Min_cycle;Max_cycle;Signal;HPM_P1;HPM_P2
2023/07/13 00:00:09;;;;;;;2.45;1.10;;;20.60;1.00;;;;;;7388775;19;20034;-64
2023/07/13 00:02:39;;;;;;;4.30;1.23;;;20.50;1.00;;;;;;7390311;19;20032;-64
2023/07/13 00:05:12;;;;;;;3.05;1.00;;;20.40;1.00;;;;;;7391313;19;20146;-64
2023/07/13 00:07:42;;;;;;;3.20;1.35;;;20.30;1.00;;;;;;7390001;19;20015;-64
2023/07/13 00:10:12;;;;;;;3.38;1.00;;;20.40;1.00;;;;;;7388662;19;20022;-64
2023/07/13 00:12:43;;;;;;;2.45;1.30;;;20.30;1.00;;;;;;7389909;19;20011;-64
2023/07/13 00:15:16;;;;;;;2.03;1.13;;;20.20;1.00;;;;;;7388178;19;20425;-65
2023/07/13 00:17:47;;;;;;;2.67;1.10;;;20.10;1.00;;;;;;7388862;19;20018;-65
2023/07/13 00:20:21;;;;;;;3.72;0.98;;;20.10;1.00;;;;;;7388782;19;20018;-66
2023/07/13 00:22:53;;;;;;;1.58;1.13;;;20.00;1.00;;;;;;7389775;19;20392;-65
2023/07/13 00:25:24;;;;;;;2.72;1.27;;;19.90;1.00;;;;;;7387045;19;20010;-65
2023/07/13 00:27:54;;;;;;;3.90;1.30;;;19.70;1.00;;;;;;7389286;19;20031;-65
2023/07/13 00:30:25;;;;;;;2.88;1.30;;;19.70;1.00;;;;;;7387504;19;20031;-65
2023/07/13 00:32:55;;;;;;;1.88;1.10;;;19.60;1.00;;;;;;7387601;19;20031;-65
2023/07/13 00:35:47;;;;;;;3.38;1.13;;;19.60;1.00;;;;;;7387811;19;20019;-65
2023/07/13 00:38:18;;;;;;;6.28;1.25;;;19.60;1.00;;;;;;7388609;19;20602;-65
2023/07/13 00:40:48;;;;;;;3.28;1.40;;;19.50;1.00;;;;;;7387136;19;20050;-65
2023/07/13 00:43:21;;;;;;;2.60;1.10;;;19.40;1.00;;;;;;7389665;19;20035;-65
2023/07/13 00:46:15;;;;;;;4.63;1.45;;;19.40;1.00;;;;;;7388618;19;20344;-65
2023/07/13 00:48:47;;;;;;;3.63;1.10;;;19.40;1.00;;;;;;7387755;19;20018;-65
2023/07/13 00:51:24;;;;;;;4.82;1.60;;;19.30;1.00;;;;;;7385260;19;20015;-65
2023/07/13 00:53:56;;;;;;;2.97;1.10;;;19.20;1.00;;;;;;7390439;19;20086;-65
2023/07/13 00:56:28;;;;;;;2.00;1.00;;;19.20;1.00;;;;;;7388081;19;20011;-65
2023/07/13 00:58:58;;;;;;;3.22;1.00;;;19.30;1.00;;;;;;7388211;19;20011;-65
2023/07/13 01:01:29;;;;;;;3.70;1.40;;;19.30;1.00;;;;;;7386290;19;20015;-65
2023/07/13 01:03:59;;;;;;;4.15;1.15;;;19.40;1.00;;;;;;7390134;19;20443;-65
2023/07/13 01:06:32;;;;;;;5.43;1.27;;;19.20;1.00;;;;;;7390369;19;20478;-65
2023/07/13 01:09:02;;;;;;;4.18;1.45;;;19.10;1.00;;;;;;7387691;19;20077;-65
2023/07/13 01:11:32;;;;;;;3.75;1.40;;;19.10;1.00;;;;;;7386045;19;20014;-65
2023/07/13 01:14:03;;;;;;;4.15;1.33;;;19.00;1.00;;;;;;7389845;19;20014;-65
2023/07/13 01:16:36;;;;;;;2.28;1.20;;;18.90;1.00;;;;;;7379981;19;20022;-65
2023/07/13 01:19:14;;;;;;;2.90;1.30;;;18.90;1.00;;;;;;7390428;19;20011;-65
2023/07/13 01:21:46;;;;;;;2.65;1.30;;;18.90;1.00;;;;;;7391701;19;20499;-65
2023/07/13 01:24:16;;;;;;;2.20;1.20;;;18.80;1.00;;;;;;7389617;19;20470;-65
2023/07/13 01:26:46;;;;;;;5.07;1.25;;;18.90;1.00;;;;;;7395827;19;20492;-65
2023/07/13 01:29:16;;;;;;;3.33;1.20;;;18.90;1.00;;;;;;7392639;19;20015;-65
2023/07/13 01:31:47;;;;;;;3.03;1.30;;;18.90;1.00;;;;;;7392853;19;20042;-65
2023/07/13 01:34:17;;;;;;;2.83;1.20;;;18.90;1.00;;;;;;7397359;19;20410;-65
2023/07/13 01:36:49;;;;;;;2.90;1.20;;;19.00;1.00;;;;;;7394269;19;20022;-65
2023/07/13 01:39:19;;;;;;;2.08;1.10;;;18.90;1.00;;;;;;7394205;19;20028;-65
2023/07/13 01:41:49;;;;;;;5.35;1.42;;;18.70;1.00;;;;;;7394444;19;20475;-65
2023/07/13 01:44:19;;;;;;;4.72;1.33;;;18.70;1.00;;;;;;7396746;19;20086;-65
2023/07/13 01:46:49;;;;;;;2.47;1.20;;;18.60;1.00;;;;;;7398546;19;20018;-65
2023/07/13 01:49:19;;;;;;;1.55;0.93;;;18.60;1.00;;;;;;7393395;19;20025;-65
2023/07/13 01:51:51;;;;;;;2.40;1.30;;;18.60;1.00;;;;;;7393608;19;20019;-65
2023/07/13 01:54:21;;;;;;;5.10;1.38;;;18.50;1.00;;;;;;7396759;19;20074;-65
2023/07/13 01:56:51;;;;;;;2.38;1.08;;;18.50;1.00;;;;;;7395130;19;20018;-65
2023/07/13 01:59:21;;;;;;;3.03;1.15;;;18.50;1.00;;;;;;7394149;19;20035;-65
2023/07/13 02:01:51;;;;;;;3.25;1.20;;;18.50;1.00;;;;;;7393719;19;20011;-65
2023/07/13 02:04:21;;;;;;;3.22;1.20;;;18.50;1.00;;;;;;7396369;19;20018;-65
2023/07/13 02:06:55;;;;;;;3.63;1.40;;;18.40;1.00;;;;;;7393961;19;20019;-65
2023/07/13 02:09:25;;;;;;;3.83;1.30;;;18.40;1.00;;;;;;7393180;19;20035;-65
2023/07/13 02:11:55;;;;;;;2.58;1.20;;;18.30;1.00;;;;;;7392560;19;20568;-65
2023/07/13 02:14:25;;;;;;;2.78;1.30;;;18.30;1.00;;;;;;7395500;19;20031;-65
2023/07/13 02:16:55;;;;;;;1.88;1.35;;;18.20;1.00;;;;;;7393623;19;20019;-65
2023/07/13 02:19:25;;;;;;;3.17;1.42;;;18.20;1.00;;;;;;7390836;19;20550;-65
2023/07/13 02:21:57;;;;;;;5.10;1.50;;;18.20;1.00;;;;;;7390881;19;20019;-65
2023/07/13 02:24:27;;;;;;;3.22;1.17;;;18.30;1.00;;;;;;7392833;19;20086;-64
2023/07/13 02:26:57;;;;;;;3.85;1.15;;;18.20;1.00;;;;;;7390208;19;20015;-65
2023/07/13 02:29:27;;;;;;;1.70;1.08;;;18.00;1.00;;;;;;7390267;19;20039;-65
2023/07/13 02:31:57;;;;;;;2.22;1.33;;;18.00;1.00;;;;;;7389901;19;20129;-65
2023/07/13 02:34:27;;;;;;;2.25;1.10;;;18.00;1.00;;;;;;7392994;19;20006;-65
2023/07/13 02:36:59;;;;;;;3.90;1.35;;;17.90;1.00;;;;;;7388857;19;20006;-65
2023/07/13 02:39:32;;;;;;;3.38;1.52;;;17.80;1.00;;;;;;7389000;19;20014;-65
2023/07/13 02:42:03;;;;;;;2.30;1.05;;;17.90;1.00;;;;;;7389809;19;20018;-65
2023/07/13 02:44:33;;;;;;;3.33;1.25;;;17.90;1.00;;;;;;7392454;19;20017;-65
2023/07/13 02:47:03;;;;;;;4.70;1.45;;;17.90;1.00;;;;;;7394863;19;20038;-65
2023/07/13 02:49:33;;;;;;;3.75;1.70;;;17.80;1.00;;;;;;7388944;19;20062;-65
2023/07/13 02:52:07;;;;;;;3.72;1.40;;;17.80;1.00;;;;;;7389010;19;20379;-65
2023/07/13 02:54:37;;;;;;;4.63;1.25;;;17.80;1.00;;;;;;7392885;19;20082;-65
2023/07/13 02:57:07;;;;;;;2.90;1.13;;;17.90;1.00;;;;;;7390326;19;20120;-64
2023/07/13 02:59:37;;;;;;;3.45;1.20;;;18.00;1.00;;;;;;7389303;19;20031;-64
2023/07/13 03:02:08;;;;;;;3.00;1.08;;;17.80;1.00;;;;;;7389328;19;20023;-65
2023/07/13 03:04:39;;;;;;;4.75;1.40;;;17.90;1.00;;;;;;7392080;19;20031;-65
2023/07/13 03:07:13;;;;;;;4.03;1.30;;;17.90;1.00;;;;;;7389506;19;20038;-65
2023/07/13 03:09:43;;;;;;;;;;;17.80;1.00;;;;;;7389557;19;20081;-65
2023/07/13 03:12:13;;;;;;;3.25;1.35;;;17.80;1.00;;;;;;7388540;19;19923;-65
2023/07/13 03:14:43;;;;;;;3.70;1.85;;;17.80;1.00;;;;;;7390902;19;20015;-64
2023/07/13 03:17:13;;;;;;;2.70;1.20;;;17.80;1.00;;;;;;7389864;19;20027;-64
2023/07/13 03:19:43;;;;;;;4.03;1.63;;;17.80;1.00;;;;;;7250462;19;2718042;-65
2023/07/13 03:22:18;;;;;;;7.55;1.63;;;17.80;1.00;;;;;;7390736;19;20479;-65
2023/07/13 03:24:48;;;;;;;4.72;1.67;;;17.90;1.00;;;;;;7394056;19;20011;-64
2023/07/13 03:27:19;;;;;;;3.67;1.42;;;17.90;1.00;;;;;;7390515;19;20474;-65
2023/07/13 03:29:49;;;;;;;3.05;1.25;;;18.00;1.00;;;;;;7390437;19;20026;-65
2023/07/13 03:32:19;;;;;;;3.97;1.65;;;18.00;1.00;;;;;;7389550;19;20773;-64
2023/07/13 03:34:49;;;;;;;2.58;1.20;;;18.00;1.00;;;;;;7393358;19;20024;-65
2023/07/13 03:37:22;;;;;;;10.30;1.65;;;18.00;1.00;;;;;;7390671;19;20078;-64
2023/07/13 03:39:51;;;;;;;5.97;1.67;;;18.00;1.00;;;;;;7389782;19;20026;-65
2023/07/13 03:42:22;;;;;;;4.45;1.50;;;18.10;1.00;;;;;;7390522;19;20014;-65
2023/07/13 03:44:52;;;;;;;9.00;1.95;;;18.10;1.00;;;;;;7393224;19;20097;-64
2023/07/13 03:47:22;;;;;;;3.38;1.65;;;18.20;1.00;;;;;;7390455;19;20081;-64
2023/07/13 03:49:53;;;;;;;5.20;1.65;;;18.30;1.00;;;;;;7387417;19;20014;-64
2023/07/13 03:52:25;;;;;;;4.75;1.67;;;18.40;1.00;;;;;;7389887;19;20010;-64
2023/07/13 03:54:55;;;;;;;3.85;1.48;;;18.40;1.00;;;;;;7393221;19;20018;-64
2023/07/13 03:57:25;;;;;;;3.95;1.55;;;18.50;1.00;;;;;;7390330;19;20046;-64
2023/07/13 03:59:55;;;;;;;5.50;1.63;;;18.90;1.00;;;;;;7389468;19;20010;-64
2023/07/13 04:02:25;;;;;;;3.30;1.30;;;19.60;1.00;;;;;;7389722;19;20027;-64
2023/07/13 04:04:55;;;;;;;2.67;1.10;;;19.20;1.00;;;;;;7392124;19;20025;-65
2023/07/13 04:07:28;;;;;;;4.95;1.40;;;18.80;1.00;;;;;;7390053;19;20031;-64
2023/07/13 04:09:58;;;;;;;4.75;1.63;;;18.50;1.00;;;;;;7388843;19;20029;-64
2023/07/13 04:12:27;;;;;;;4.90;1.50;;;18.50;1.00;;;;;;7389214;19;20507;-64
2023/07/13 04:14:59;;;;;;;5.32;1.45;;;18.50;1.00;;;;;;7391652;19;20011;-64
2023/07/13 04:17:29;;;;;;;5.88;1.55;;;18.40;1.00;;;;;;7389504;19;20038;-65
2023/07/13 04:19:59;;;;;;;2.65;1.13;;;18.30;1.00;;;;;;7388623;19;20094;-65
2023/07/13 04:22:32;;;;;;;4.53;1.80;;;18.30;1.00;;;;;;7388065;19;20019;-64
2023/07/13 04:25:02;;;;;;;4.13;1.48;;;18.20;1.00;;;;;;7391079;19;20006;-64
2023/07/13 04:27:32;;;;;;;3.70;1.40;;;18.30;1.00;;;;;;7388834;19;20040;-65
2023/07/13 04:30:02;;;;;;;3.75;1.60;;;18.10;1.00;;;;;;7388196;19;20099;-64
2023/07/13 04:32:32;;;;;;;4.80;1.63;;;18.10;1.00;;;;;;7388925;19;20056;-65
2023/07/13 04:35:02;;;;;;;3.20;1.45;;;18.30;1.00;;;;;;7390950;19;20078;-64
2023/07/13 04:37:35;;;;;;;4.30;1.60;;;18.20;1.00;;;;;;7388493;19;20022;-65
2023/07/13 04:40:06;;;;;;;3.22;1.50;;;18.20;1.00;;;;;;7387179;19;20018;-64
2023/07/13 04:42:36;;;;;;;4.88;1.80;;;18.30;1.00;;;;;;7388645;19;20021;-65
2023/07/13 04:45:10;;;;;;;3.40;1.42;;;18.20;1.00;;;;;;7390850;19;20023;-65
2023/07/13 04:47:40;;;;;;;2.92;1.38;;;18.30;1.00;;;;;;7388555;19;20018;-65
2023/07/13 04:50:11;;;;;;;3.47;1.55;;;18.20;1.00;;;;;;7387589;19;20015;-65
2023/07/13 04:52:44;;;;;;;4.25;2.13;;;18.20;1.00;;;;;;7387722;19;20752;-65
2023/07/13 04:55:14;;;;;;;6.28;1.77;;;18.30;1.00;;;;;;7388431;19;20014;-65
2023/07/13 04:57:44;;;;;;;4.20;1.42;;;18.20;1.00;;;;;;7387548;19;20038;-65
2023/07/13 05:00:15;;;;;;;4.65;2.10;;;18.10;1.00;;;;;;7385374;19;20039;-65
2023/07/13 05:02:45;;;;;;;1.95;1.50;;;18.20;1.00;;;;;;7388120;19;20034;-65
2023/07/13 05:05:15;;;;;;;3.65;1.45;;;18.40;1.00;;;;;;7389844;19;20027;-64
2023/07/13 05:07:48;;;;;;;2.42;1.17;;;18.60;1.00;;;;;;7388129;19;20014;-64
2023/07/13 05:10:18;;;;;;;5.05;1.80;;;19.40;1.00;;;;;;7386683;19;20014;-66
2023/07/13 05:12:48;;;;;;;3.38;1.33;;;21.10;1.00;;;;;;7387434;19;20035;-66
2023/07/13 05:15:20;;;;;;;2.78;1.45;;;22.40;1.00;;;;;;7387837;19;20074;-65
2023/07/13 05:17:51;;;;;;;6.00;1.90;;;23.50;1.00;;;;;;7387059;19;20023;-65
2023/07/13 05:20:22;;;;;;;3.83;1.50;;;21.80;1.00;;;;;;7385868;19;20018;-65
2023/07/13 05:22:54;;;;;;;2.88;1.40;;;21.00;1.00;;;;;;7387351;19;20027;-65
2023/07/13 05:25:24;;;;;;;3.85;1.52;;;20.40;1.00;;;;;;7389277;19;20082;-65
2023/07/13 05:27:54;;;;;;;3.67;1.48;;;19.90;1.00;;;;;;7386320;19;20035;-65
2023/07/13 05:30:24;;;;;;;4.25;1.50;;;19.60;1.00;;;;;;7385525;19;20474;-65
2023/07/13 05:32:54;;;;;;;2.15;1.30;;;19.30;1.00;;;;;;7386825;19;20070;-65
2023/07/13 05:35:24;;;;;;;3.33;1.58;;;19.30;1.00;;;;;;7386927;19;20118;-65
2023/07/13 05:37:56;;;;;;;4.38;1.83;;;19.40;1.00;;;;;;7386417;19;20088;-65
2023/07/13 05:40:26;;;;;;;3.63;1.70;;;19.30;1.00;;;;;;7384893;19;20014;-65
2023/07/13 05:42:56;;;;;;;7.38;1.90;;;19.20;1.00;;;;;;7386551;19;20018;-65
2023/07/13 05:45:26;;;;;;;2.28;1.50;;;19.10;1.00;;;;;;7387933;19;20031;-65
2023/07/13 05:47:56;;;;;;;3.20;1.40;;;19.40;1.00;;;;;;7385872;19;20038;-65
2023/07/13 05:50:26;;;;;;;3.58;1.60;;;20.50;1.00;;;;;;7385048;19;20345;-65
2023/07/13 05:52:59;;;;;;;2.30;1.40;;;19.90;1.00;;;;;;7385679;19;20019;-65
2023/07/13 05:55:29;;;;;;;3.97;1.65;;;19.50;1.00;;;;;;7386905;19;20081;-65
2023/07/13 05:57:59;;;;;;;4.00;1.60;;;19.70;1.00;;;;;;7383679;19;20383;-66
2023/07/13 06:00:30;;;;;;;3.00;1.23;;;19.90;1.00;;;;;;7384860;19;20014;-64
2023/07/13 06:03:00;;;;;;;4.25;1.40;;;19.70;1.00;;;;;;7386155;19;20082;-64
2023/07/13 06:05:30;;;;;;;2.67;1.60;;;19.70;1.00;;;;;;7388118;19;20108;-64
2023/07/13 06:08:02;;;;;;;5.85;1.48;;;20.90;1.00;;;;;;7384938;19;20060;-65
2023/07/13 06:10:35;;;;;;;4.53;1.45;;;22.20;1.00;;;;;;7385283;19;20313;-64
2023/07/13 06:13:05;;;;;;;3.50;1.63;;;23.10;1.00;;;;;;7390152;19;20478;-65
2023/07/13 06:15:35;;;;;;;2.42;1.40;;;21.90;1.00;;;;;;7393486;19;20486;-65
2023/07/13 06:18:05;;;;;;;2.75;1.55;;;20.50;1.00;;;;;;7391634;19;20074;-65
2023/07/13 06:20:37;;;;;;;6.43;1.55;;;21.80;1.00;;;;;;7392187;19;20019;-65
2023/07/13 06:23:09;;;;;;;3.15;1.50;;;21.30;1.00;;;;;;7392495;19;20022;-63
2023/07/13 06:25:39;;;;;;;4.38;1.73;;;21.00;1.00;;;;;;7392654;19;20022;-65
2023/07/13 06:28:09;;;;;;;3.90;1.50;;;21.20;1.00;;;;;;7391531;19;20010;-65
2023/07/13 06:30:40;;;;;;;2.10;1.30;;;21.10;1.00;;;;;;7389857;19;20502;-65
2023/07/13 06:33:11;;;;;;;8.43;1.60;;;20.70;1.00;;;;;;7392337;19;20018;-66
2023/07/13 06:35:40;;;;;;;4.50;1.75;;;21.40;1.00;;;;;;7393378;19;20026;-66
2023/07/13 06:38:13;;;;;;;7.53;1.90;;;21.40;1.00;;;;;;7391918;19;20017;-65
2023/07/13 06:40:43;;;;;;;4.88;1.63;;;23.30;1.00;;;;;;7392133;19;20031;-66
2023/07/13 06:43:13;;;;;;;6.00;1.83;;;24.20;1.00;;;;;;7392307;19;20018;-65
2023/07/13 06:45:47;;;;;;;3.00;1.40;;;24.30;1.00;;;;;;7394459;19;20014;-65
2023/07/13 06:48:17;;;;;;;6.00;1.98;;;24.20;1.00;;;;;;7391763;19;20017;-65
2023/07/13 06:50:48;;;;;;;3.90;1.42;;;23.90;1.00;;;;;;7390475;19;20219;-65
2023/07/13 06:53:22;;;;;;;8.70;1.70;;;22.60;1.00;;;;;;7391746;19;20010;-65
2023/07/13 06:55:52;;;;;;;6.03;2.17;;;21.80;1.00;;;;;;7391810;19;20019;-65
2023/07/13 06:58:24;;;;;;;2.42;1.45;;;22.00;1.00;;;;;;7390741;19;20018;-66
2023/07/13 07:00:54;;;;;;;2.13;1.42;;;21.80;1.00;;;;;;7390205;19;20027;-64
2023/07/13 07:03:24;;;;;;;4.50;1.80;;;21.30;1.00;;;;;;7391560;19;20335;-66
2023/07/13 07:05:55;;;;;;;4.18;1.38;;;21.00;1.00;;;;;;7394401;19;20077;-65
2023/07/13 07:08:27;;;;;;;3.45;1.48;;;20.90;1.00;;;;;;7391401;19;20018;-65
2023/07/13 07:10:57;;;;;;;2.60;1.40;;;21.30;1.00;;;;;;7390200;19;20261;-65
2023/07/13 07:13:28;;;;;;;3.80;1.83;;;21.70;1.00;;;;;;7390363;19;20032;-65
2023/07/13 07:15:59;;;;;;;2.85;1.30;;;21.60;1.00;;;;;;7392995;19;20376;-65
2023/07/13 07:18:30;;;;;;;3.40;1.33;;;22.00;1.00;;;;;;7388259;19;20015;-66
2023/07/13 07:21:02;;;;;;;5.00;1.70;;;21.40;1.00;;;;;;7389335;19;20022;-64
2023/07/13 07:23:35;;;;;;;3.78;1.30;;;21.70;1.00;;;;;;7387384;19;20031;-65
2023/07/13 07:26:05;;;;;;;3.83;1.58;;;22.30;1.00;;;;;;7394488;19;20018;-65
2023/07/13 07:28:35;;;;;;;2.63;1.60;;;22.60;1.00;;;;;;7390039;19;20011;-65
2023/07/13 07:31:08;;;;;;;3.38;1.45;;;22.40;1.00;;;;;;7387667;19;20026;-65
2023/07/13 07:33:41;;;;;;;6.78;1.80;;;23.00;1.00;;;;;;7390537;19;20571;-65
2023/07/13 07:36:11;;;;;;;2.88;1.13;;;22.80;1.00;;;;;;7392848;19;20066;-65
2023/07/13 07:38:47;;;;;;;3.33;1.30;;;21.80;1.00;;;;;;7390581;19;20072;-66
2023/07/13 07:41:17;;;;;;;8.05;1.60;;;22.30;1.00;;;;;;7388467;19;20280;-66
2023/07/13 07:43:50;;;;;;;4.60;1.67;;;23.00;1.00;;;;;;7390574;19;20074;-66
2023/07/13 07:46:20;;;;;;;3.05;1.33;;;22.60;1.00;;;;;;7393730;19;20022;-65
2023/07/13 07:48:49;;;;;;;3.95;1.20;;;22.70;1.00;;;;;;7388937;19;20021;-65
2023/07/13 07:51:19;;;;;;;2.28;1.10;;;22.50;1.00;;;;;;7388233;19;20015;-64
2023/07/13 07:53:52;;;;;;;4.45;1.13;;;22.00;1.00;;;;;;7389715;19;20022;-65
2023/07/13 07:56:22;;;;;;;5.35;1.38;;;22.10;1.00;;;;;;7392415;19;20086;-64
2023/07/13 07:58:55;;;;;;;1.63;1.10;;;23.00;1.00;;;;;;7387870;19;20010;-65
2023/07/13 08:01:28;;;;;;;2.25;1.15;;;22.70;1.00;;;;;;7387290;19;20035;-65
2023/07/13 08:04:00;;;;;;;1.63;1.10;;;22.90;1.00;;;;;;7388495;19;20018;-64
2023/07/13 08:06:34;;;;;;;2.90;1.00;;;21.90;1.00;;;;;;7388701;19;20035;-65
2023/07/13 08:09:10;;;;;;;3.40;1.10;;;22.70;1.00;;;;;;7385100;19;20039;-65
2023/07/13 08:11:40;;;;;;;1.70;1.25;;;22.10;1.00;;;;;;7382560;19;20021;-65
2023/07/13 08:14:12;;;;;;;1.88;1.15;;;22.60;1.00;;;;;;7384611;19;20388;-65
2023/07/13 08:16:42;;;;;;;4.65;1.35;;;23.10;1.00;;;;;;7383202;19;20086;-66
2023/07/13 08:19:13;;;;;;;4.00;1.20;;;23.10;1.00;;;;;;7385255;19;20015;-66
2023/07/13 08:21:43;;;;;;;4.53;1.10;;;23.50;1.00;;;;;;7386385;19;20014;-67
2023/07/13 08:24:15;;;;;;;2.67;1.30;;;23.10;1.00;;;;;;7389157;19;20019;-64
2023/07/13 08:26:45;;;;;;;2.47;0.90;;;22.60;1.00;;;;;;7389176;19;20011;-65
2023/07/13 08:29:15;;;;;;;1.92;1.10;;;22.70;1.00;;;;;;7388602;19;20035;-65
2023/07/13 08:31:45;;;;;;;3.55;1.10;;;22.70;1.00;;;;;;7387896;19;20044;-64
2023/07/13 08:34:15;;;;;;;2.45;1.02;;;22.80;1.00;;;;;;7388641;19;20010;-65
2023/07/13 08:36:46;;;;;;;1.65;0.95;;;22.80;1.00;;;;;;7386581;19;20010;-66
2023/07/13 08:39:19;;;;;;;4.10;1.30;;;23.10;1.00;;;;;;7388515;19;20458;-64
2023/07/13 08:41:52;;;;;;;5.28;1.42;;;23.40;1.00;;;;;;7388722;19;20014;-65
2023/07/13 08:44:28;;;;;;;6.10;1.40;;;23.40;1.00;;;;;;7387014;19;20038;-64
2023/07/13 08:47:01;;;;;;;4.63;1.20;;;23.10;1.00;;;;;;7391868;19;20073;-65
2023/07/13 08:49:31;;;;;;;3.38;1.25;;;22.60;1.00;;;;;;7388413;19;20110;-66
2023/07/13 08:52:04;;;;;;;4.10;1.58;;;22.70;1.00;;;;;;7387759;19;20078;-66
2023/07/13 08:54:41;;;;;;;5.25;1.40;;;23.40;1.00;;;;;;7387206;19;20609;-66
2023/07/13 08:57:15;;;;;;;3.97;1.23;;;23.20;1.00;;;;;;7386118;19;20434;-66
2023/07/13 08:59:46;;;;;;;3.55;1.17;;;22.60;1.00;;;;;;7383934;19;20511;-65
2023/07/13 09:02:25;;;;;;;6.25;1.45;;;23.30;1.00;;;;;;7388044;19;20017;-65
2023/07/13 09:05:01;;;;;;;3.25;1.45;;;24.30;1.00;;;;;;7388394;19;20018;-66
2023/07/13 09:07:48;;;;;;;4.72;1.30;;;24.20;1.00;;;;;;7387202;19;20014;-65
2023/07/13 09:10:26;;;;;;;3.00;1.05;;;22.90;1.00;;;;;;7386431;19;20519;-65
2023/07/13 09:13:09;;;;;;;6.15;1.73;;;23.40;1.00;;;;;;7387065;19;20095;-66
2023/07/13 09:15:43;;;;;;;3.53;1.40;;;24.10;1.00;;;;;;7388789;19;20011;-66
2023/07/13 09:18:18;;;;;;;2.20;1.05;;;24.40;1.00;;;;;;7387043;19;20014;-65
2023/07/13 09:20:53;;;;;;;2.90;1.48;;;24.30;1.00;;;;;;7385275;19;20424;-65
2023/07/13 09:23:25;;;;;;;4.88;1.42;;;24.50;1.00;;;;;;7386462;19;20346;-64
2023/07/13 09:26:05;;;;;;;5.28;1.17;;;24.80;1.00;;;;;;7389446;19;20086;-65
2023/07/13 09:28:41;;;;;;;2.15;1.10;;;23.50;1.00;;;;;;7387164;19;20114;-65
2023/07/13 09:31:15;;;;;;;7.22;4.78;;;23.70;1.00;;;;;;7384014;19;20011;-65
2023/07/13 09:33:46;;;;;;;5.25;1.30;;;24.20;1.00;;;;;;7385424;19;20019;-65
2023/07/13 09:36:23;;;;;;;3.53;1.23;;;23.80;1.00;;;;;;7387303;19;20047;-64
2023/07/13 09:39:05;;;;;;;4.28;1.20;;;23.80;1.00;;;;;;7386411;19;20032;-65
2023/07/13 09:41:48;;;;;;;3.45;1.10;;;23.90;1.00;;;;;;7384771;19;20022;-65
2023/07/13 09:44:19;;;;;;;2.30;1.20;;;25.00;1.00;;;;;;7385311;19;20014;-65
2023/07/13 09:46:56;;;;;;;3.40;1.30;;;24.30;1.00;;;;;;7391757;19;20019;-65
2023/07/13 09:49:27;;;;;;;5.20;1.33;;;24.40;1.00;;;;;;7393779;19;20038;-64
2023/07/13 09:52:02;;;;;;;1.98;1.30;;;23.40;1.00;;;;;;7393389;19;20078;-65
2023/07/13 09:54:36;;;;;;;3.42;1.30;;;23.20;1.00;;;;;;7393274;19;20027;-66
2023/07/13 09:57:16;;;;;;;4.78;1.30;;;23.90;1.00;;;;;;7391499;19;20571;-66
2023/07/13 09:59:49;;;;;;;2.72;1.20;;;24.30;1.00;;;;;;7393318;19;20022;-66
2023/07/13 10:02:32;;;;;;;5.45;1.33;;;23.80;1.00;;;;;;7393513;19;20015;-66
2023/07/13 10:05:05;;;;;;;2.85;1.20;;;24.50;1.00;;;;;;7394368;19;20163;-65
2023/07/13 10:07:40;;;;;;;3.45;1.35;;;24.70;1.00;;;;;;7393661;19;20086;-65
2023/07/13 10:10:17;;;;;;;2.47;1.00;;;25.00;1.00;;;;;;7391637;19;20018;-65
2023/07/13 10:12:50;;;;;;;3.90;1.17;;;23.50;1.00;;;;;;7392641;19;20462;-66
2023/07/13 10:15:24;;;;;;;4.32;1.10;;;23.80;1.00;;;;;;7393328;19;20018;-66
2023/07/13 10:17:57;;;;;;;2.65;1.08;;;24.10;1.00;;;;;;7391319;19;20018;-66
2023/07/13 10:20:29;;;;;;;4.25;1.40;;;24.20;1.00;;;;;;7391850;19;20019;-66
2023/07/13 10:23:04;;;;;;;4.80;1.10;;;24.80;1.00;;;;;;7392277;19;20507;-67
2023/07/13 10:25:37;;;;;;;5.05;1.60;;;24.50;1.00;;;;;;7391939;19;20018;-66
2023/07/13 10:28:29;;;;;;;7.60;1.17;;;24.00;1.00;;;;;;7389763;19;20028;-65
2023/07/13 10:31:02;;;;;;;3.53;1.02;;;24.60;1.00;;;;;;7389609;19;20101;-66
2023/07/13 10:33:32;;;;;;;2.97;1.00;;;24.80;1.00;;;;;;7395861;19;20043;-66
2023/07/13 10:36:14;;;;;;;1.90;1.20;;;24.70;1.00;;;;;;7396560;19;20014;-65
2023/07/13 10:38:48;;;;;;;3.03;0.88;;;24.20;1.00;;;;;;7392987;19;20031;-65
2023/07/13 10:41:21;;;;;;;2.33;1.27;;;24.60;1.00;;;;;;7389754;19;20019;-65
2023/07/13 10:43:57;;;;;;;7.00;1.63;;;24.70;1.00;;;;;;7391926;19;20015;-65
2023/07/13 10:46:30;;;;;;;2.42;1.00;;;25.20;1.00;;;;;;7393377;19;20810;-66
2023/07/13 10:49:04;;;;;;;2.47;1.00;;;25.00;1.00;;;;;;7391117;19;20022;-66
2023/07/13 10:51:34;;;;;;;;;;;25.40;1.00;;;;;;7392871;19;20134;-66
2023/07/13 10:54:21;;;;;;;2.90;1.10;;;25.20;1.00;;;;;;7391324;19;20354;-65
2023/07/13 10:57:09;;;;;;;6.07;1.52;;;24.50;1.00;;;;;;7393976;19;20014;-65
2023/07/13 10:59:41;;;;;;;3.10;1.02;;;24.50;1.00;;;;;;7390822;19;20042;-65
2023/07/13 11:02:17;;;;;;;3.55;1.30;;;24.40;1.00;;;;;;7391086;19;20507;-66
2023/07/13 11:04:50;;;;;;;2.58;1.02;;;24.70;1.00;;;;;;7393166;19;20355;-66
2023/07/13 11:07:23;;;;;;;3.53;1.02;;;24.90;1.00;;;;;;7390798;19;20014;-65
2023/07/13 11:09:56;;;;;;;3.40;1.15;;;25.10;1.00;;;;;;7388835;19;20158;-66
2023/07/13 11:12:56;;;;;;;4.90;1.02;;;24.70;1.00;;;;;;7391295;19;20082;-64
2023/07/13 11:15:44;;;;;;;2.53;1.05;;;24.70;1.00;;;;;;7391014;19;20027;-66
2023/07/13 11:18:24;;;;;;;5.93;1.20;;;25.60;1.00;;;;;;7388261;19;20046;-65
2023/07/13 11:21:14;;;;;;;4.57;1.20;;;25.60;1.00;;;;;;7389435;19;20018;-67
2023/07/13 11:24:06;;;;;;;3.33;1.00;;;25.90;1.00;;;;;;7390299;19;20504;-66
2023/07/13 11:26:44;;;;;;;2.90;1.17;;;25.60;1.00;;;;;;7392718;19;20377;-65
2023/07/13 11:29:28;;;;;;;3.40;1.23;;;25.50;1.00;;;;;;7391148;19;20104;-65
2023/07/13 11:32:04;;;;;;;2.33;1.15;;;26.00;1.00;;;;;;7390334;19;20006;-65
2023/07/13 11:34:38;;;;;;;5.70;1.52;;;26.00;1.00;;;;;;7389416;19;20086;-66
2023/07/13 11:37:13;;;;;;;;;;;26.30;1.00;;;;;;7393901;19;20035;-64
2023/07/13 11:39:46;;;;;;;5.05;1.30;;;26.30;1.00;;;;;;7389890;19;19922;-65
2023/07/13 11:42:19;;;;;;;6.43;1.65;;;25.60;1.00;;;;;;7389856;19;20054;-65
2023/07/13 11:44:51;;;;;;;3.28;1.10;;;25.50;1.00;;;;;;7384808;19;20014;-65
2023/07/13 11:47:44;;;;;;;3.28;1.02;;;25.40;1.00;;;;;;7378282;19;20345;-65
2023/07/13 11:50:22;;;;;;;4.38;1.17;;;25.60;1.00;;;;;;7379554;19;20022;-66
2023/07/13 11:52:55;;;;;;;2.20;1.10;;;25.40;1.00;;;;;;7379786;19;20031;-65
2023/07/13 11:55:27;;;;;;;3.05;1.25;;;24.90;1.00;;;;;;7379833;19;20014;-67
2023/07/13 11:58:01;;;;;;;4.65;0.88;;;25.10;1.00;;;;;;7378539;19;20038;-66
2023/07/13 12:00:34;;;;;;;2.67;1.05;;;25.60;1.00;;;;;;7378301;19;20487;-66
2023/07/13 12:03:09;;;;;;;7.33;1.80;;;25.00;1.00;;;;;;7379236;19;20038;-65
2023/07/13 12:05:39;;;;;;;5.43;1.40;;;25.40;1.00;;;;;;7382194;19;20023;-66
2023/07/13 12:08:13;;;;;;;2.13;1.10;;;24.80;1.00;;;;;;7379271;19;20011;-66
2023/07/13 12:10:59;;;;;;;2.47;1.00;;;24.90;1.00;;;;;;7375132;19;20474;-67
2023/07/13 12:13:30;;;;;;;4.38;1.20;;;25.60;1.00;;;;;;7379246;19;20116;-66
2023/07/13 12:16:00;;;;;;;3.30;1.20;;;25.80;1.00;;;;;;7380790;19;20018;-66
2023/07/13 12:18:35;;;;;;;3.03;0.98;;;25.50;1.00;;;;;;7375517;19;20042;-66
2023/07/13 12:21:07;;;;;;;1.85;0.90;;;25.30;1.00;;;;;;7376470;19;20014;-66
2023/07/13 12:23:38;;;;;;;2.83;1.20;;;25.40;1.00;;;;;;7377634;19;20796;-65
2023/07/13 12:26:11;;;;;;;3.03;1.35;;;25.20;1.00;;;;;;7380330;19;20035;-66
2023/07/13 12:28:48;;;;;;;2.40;1.10;;;25.60;1.00;;;;;;7378544;19;20021;-65
2023/07/13 12:31:33;;;;;;;3.75;1.20;;;26.50;1.00;;;;;;7376646;19;20114;-65
2023/07/13 12:34:11;;;;;;;2.63;1.08;;;25.80;1.00;;;;;;7377992;19;20042;-67
2023/07/13 12:36:48;;;;;;;1.67;1.17;;;25.10;1.00;;;;;;7380789;19;20025;-68
2023/07/13 12:39:23;;;;;;;2.85;1.00;;;25.80;1.00;;;;;;7376383;19;20018;-65
2023/07/13 12:41:54;;;;;;;3.03;1.17;;;26.30;1.00;;;;;;7378379;19;20014;-65
2023/07/13 12:44:33;;;;;;;2.45;1.02;;;26.50;1.00;;;;;;7376452;19;20489;-66
2023/07/13 12:47:11;;;;;;;3.45;1.10;;;26.50;1.00;;;;;;7381650;19;20417;-66
2023/07/13 12:49:51;;;;;;;2.83;1.10;;;25.90;1.00;;;;;;7377893;19;20042;-66
2023/07/13 12:52:25;;;;;;;1.38;0.90;;;26.60;1.00;;;;;;7378342;19;20018;-66
2023/07/13 12:54:57;;;;;;;1.35;0.93;;;26.60;1.00;;;;;;7374319;19;20351;-66
2023/07/13 12:57:40;;;;;;;3.58;1.27;;;26.30;1.00;;;;;;7377973;19;20038;-66
2023/07/13 13:00:24;;;;;;;3.53;1.27;;;26.60;1.00;;;;;;7375856;19;20049;-66
2023/07/13 13:02:56;;;;;;;6.22;1.10;;;26.10;1.00;;;;;;7376094;19;20018;-66
2023/07/13 13:05:48;;;;;;;2.53;1.10;;;26.20;1.00;;;;;;7376642;19;20021;-65
2023/07/13 13:08:19;;;;;;;4.50;2.13;;;26.50;1.00;;;;;;7375613;19;20027;-66
2023/07/13 13:10:49;;;;;;;3.20;1.10;;;26.60;1.00;;;;;;7376851;19;20010;-68
2023/07/13 13:13:19;;;;;;;2.00;1.00;;;26.60;1.00;;;;;;7375407;19;20023;-66
2023/07/13 13:15:50;;;;;;;2.58;1.00;;;26.00;1.00;;;;;;7377121;19;20010;-66
2023/07/13 13:18:21;;;;;;;1.70;1.00;;;26.10;1.00;;;;;;7376834;19;20821;-65
2023/07/13 13:20:54;;;;;;;2.90;1.17;;;25.60;1.00;;;;;;7373851;19;20014;-66
2023/07/13 13:23:25;;;;;;;3.67;1.33;;;26.00;1.00;;;;;;7383045;19;20097;-66
2023/07/13 13:25:56;;;;;;;2.60;1.27;;;26.70;1.00;;;;;;7384552;19;20050;-66